createdAt,value
2022-11-16T00:04:45.863Z,92.70
2022-11-16T00:14:49.587Z,92.30
2022-11-16T00:24:53.763Z,97.70
2022-11-16T00:34:57.747Z,90.10
2022-11-16T00:45:01.507Z,91.60
2022-11-16T00:55:06.330Z,82.70
2022-11-16T01:05:11.907Z,81.30
2022-11-16T01:15:17.001Z,80.90
2022-11-16T01:25:20.996Z,83.90
2022-11-16T01:35:24.765Z,80.70
2022-11-16T01:45:39.569Z,77.30
2022-11-16T01:55:47.999Z,73.90
2022-11-16T02:06:53.474Z,77.00
2022-11-16T02:17:19.536Z,71.50
2022-11-16T02:27:42.909Z,75.20
2022-11-16T02:37:53.088Z,81.20
2022-11-16T02:48:05.078Z,79.00
2022-11-16T02:58:12.886Z,79.90
2022-11-16T03:08:31.635Z,71.30
2022-11-16T03:18:40.193Z,78.60
2022-11-16T03:29:08.975Z,80.70
2022-11-16T03:39:19.838Z,80.50
2022-11-16T03:49:24.521Z,80.70
2022-11-16T03:59:29.686Z,78.90
2022-11-16T04:09:53.115Z,83.70
2022-11-16T04:20:15.993Z,74.80
2022-11-16T04:30:20.194Z,82.00
2022-11-16T04:40:29.831Z,85.10
2022-11-16T04:50:34.466Z,84.00
2022-11-16T05:00:39.769Z,79.50
2022-11-16T05:10:44.653Z,85.30
2022-11-16T05:21:04.664Z,78.00
2022-11-16T05:31:14.004Z,81.40
2022-11-16T05:41:17.976Z,79.00
2022-11-16T05:51:22.040Z,74.10
2022-11-16T06:01:26.522Z,79.60
2022-11-16T06:11:35.857Z,71.00
2022-11-16T06:21:40.609Z,70.50
2022-11-16T06:31:49.352Z,60.60
2022-11-16T06:41:53.573Z,59.20
2022-11-16T06:51:57.441Z,66.40
2022-11-16T07:02:02.789Z,69.80
2022-11-16T07:12:07.837Z,79.60
2022-11-16T07:22:14.164Z,57.90
2022-11-16T07:32:19.260Z,53.80
2022-11-16T07:42:42.840Z,72.50
2022-11-16T07:53:04.761Z,67.70
2022-11-16T08:03:08.733Z,75.00
2022-11-16T08:13:14.448Z,80.50
2022-11-16T08:23:20.049Z,81.50
2022-11-16T08:33:26.231Z,79.30
2022-11-16T08:43:32.351Z,75.70
2022-11-16T08:53:36.885Z,78.60
2022-11-16T09:03:42.194Z,83.20
2022-11-16T09:13:48.397Z,53.70
2022-11-16T09:23:54.065Z,45.80
2022-11-16T09:33:59.216Z,39.70
2022-11-16T09:44:14.950Z,38.30
2022-11-16T09:54:24.664Z,43.60
2022-11-16T10:04:44.283Z,45.20
2022-11-16T10:14:54.344Z,51.40
2022-11-16T10:24:59.138Z,60.10
2022-11-16T10:35:11.897Z,62.60
2022-11-16T10:45:25.860Z,64.50
2022-11-16T10:55:30.246Z,62.90
2022-11-16T11:05:36.871Z,58.80
2022-11-16T11:15:43.094Z,66.20
2022-11-16T11:25:58.737Z,63.00
2022-11-16T11:36:07.679Z,62.90
2022-11-16T11:46:47.381Z,63.40
2022-11-16T11:56:51.279Z,78.40
2022-11-16T12:07:25.988Z,58.00
2022-11-16T12:17:45.176Z,56.30
2022-11-16T12:27:51.543Z,54.60
2022-11-16T12:38:00.792Z,55.20
2022-11-16T12:48:46.485Z,51.80
2022-11-16T12:58:59.385Z,54.40
2022-11-16T13:09:24.042Z,52.50
2022-11-16T13:19:28.762Z,42.60
2022-11-16T13:29:48.955Z,36.40
2022-11-16T13:39:59.969Z,30.30
2022-11-16T13:50:07.755Z,19.80
2022-11-16T14:10:34.720Z,17.30
2022-11-16T14:20:38.493Z,11.40
2022-11-16T14:30:54.805Z,14.20
2022-11-16T14:41:02.518Z,9.00
2022-11-16T15:01:19.378Z,9.60
2022-11-16T15:11:54.996Z,10.50
2022-11-16T15:22:01.102Z,9.00
2022-11-16T15:32:06.936Z,15.60
2022-11-16T15:42:16.055Z,26.30
2022-11-16T15:52:50.695Z,17.10
2022-11-16T16:03:07.067Z,15.60
2022-11-16T16:13:26.580Z,16.10
2022-11-16T16:23:30.467Z,12.40
2022-11-16T16:33:34.658Z,11.00
2022-11-16T16:43:38.955Z,11.30
2022-11-16T16:53:42.626Z,9.10
2022-11-16T17:03:47.618Z,6.70
2022-11-16T17:13:51.639Z,6.70
2022-11-16T17:23:56.114Z,7.70
2022-11-16T17:34:01.917Z,13.10
2022-11-16T17:44:07.297Z,12.90
2022-11-16T17:54:12.497Z,16.90
2022-11-16T18:04:17.094Z,12.20
2022-11-16T18:14:21.664Z,8.60
2022-11-16T18:24:27.168Z,11.20
2022-11-16T18:34:31.832Z,11.10
2022-11-16T18:44:37.061Z,10.40
2022-11-16T18:54:42.041Z,10.10
2022-11-16T19:04:46.945Z,20.90
2022-11-16T19:14:51.738Z,9.10
2022-11-16T19:25:00.525Z,9.10
2022-11-16T19:35:11.118Z,9.00
2022-11-16T19:45:16.844Z,7.00
2022-11-16T19:55:21.119Z,8.70
2022-11-16T20:05:28.984Z,7.70
2022-11-16T20:25:44.389Z,9.40
2022-11-16T20:35:49.510Z,9.40
2022-11-16T20:45:55.513Z,9.30
2022-11-16T20:56:02.672Z,7.00
2022-11-16T21:06:10.652Z,8.10
2022-11-16T21:16:16.263Z,8.30
2022-11-16T21:26:25.619Z,6.30
2022-11-16T21:36:31.465Z,4.60
2022-11-16T21:46:36.356Z,7.20
2022-11-16T21:56:40.219Z,4.90
2022-11-16T22:07:03.072Z,5.80
2022-11-16T22:17:09.009Z,4.80
2022-11-16T22:27:13.751Z,6.50
2022-11-16T22:37:18.572Z,4.60
2022-11-16T22:47:22.386Z,5.30
2022-11-16T22:57:26.360Z,4.60
2022-11-16T23:07:30.667Z,4.70
2022-11-16T23:17:34.606Z,4.80
2022-11-16T23:28:05.915Z,6.20
2022-11-16T23:38:10.289Z,4.90
2022-11-16T23:48:16.198Z,4.70
2022-11-16T23:58:19.964Z,4.60
